Time;durP1;ratioP1;P1;durP2;ratioP2;P2;SDS_P1;SDS_P2;PMS_P1;PMS_P2;Temp;Humidity;BMP_temperature;BMP_pressure;BME280_temperature;BME280_humidity;BME280_pressure;Samples;Min_cycle;Max_cycle;Signal;HPM_P1;HPM_P2
2022/04/05 00:01:30;;;;;;;5.45;4.43;;;9.10;99.90;;;;;;4143441;28;20034;-63
2022/04/05 00:03:30;;;;;;;4.38;3.97;;;9.10;99.90;;;;;;4145098;28;21240;-63
2022/04/05 00:05:31;;;;;;;5.47;4.97;;;9.10;99.90;;;;;;4144417;28;20049;-63
2022/04/05 00:07:31;;;;;;;5.18;4.63;;;9.10;99.90;;;;;;4144803;28;20038;-62
2022/04/05 00:09:32;;;;;;;4.72;4.32;;;9.10;99.90;;;;;;4144657;28;20045;-62
2022/04/05 00:11:33;;;;;;;5.50;4.47;;;9.10;99.90;;;;;;4144182;28;20038;-62
2022/04/05 00:13:33;;;;;;;4.35;3.95;;;9.20;99.90;;;;;;4144775;28;20034;-63
2022/04/05 00:15:34;;;;;;;4.38;3.97;;;9.20;99.90;;;;;;4143780;28;20029;-62
2022/04/05 00:17:35;;;;;;;4.95;4.45;;;9.20;99.90;;;;;;4144888;28;20034;-66
2022/04/05 00:19:36;;;;;;;5.15;3.85;;;9.20;99.90;;;;;;4144561;28;20038;-64
2022/04/05 00:21:37;;;;;;;5.05;4.55;;;9.20;99.90;;;;;;4143643;28;20030;-64
2022/04/05 00:23:37;;;;;;;4.15;3.75;;;9.20;99.90;;;;;;4144358;28;20034;-63
2022/04/05 00:25:38;;;;;;;4.82;4.30;;;9.20;99.90;;;;;;4143756;28;20096;-63
2022/04/05 00:27:39;;;;;;;4.68;4.28;;;9.30;99.90;;;;;;4144531;28;20058;-63
2022/04/05 00:29:41;;;;;;;3.70;3.40;;;9.30;99.90;;;;;;4144729;28;20517;-63
2022/04/05 00:31:41;;;;;;;4.43;4.03;;;9.30;99.90;;;;;;4143641;28;20374;-63
2022/04/05 00:33:42;;;;;;;4.45;4.05;;;9.30;99.90;;;;;;4144262;28;20091;-64
2022/04/05 00:35:43;;;;;;;6.40;5.30;;;9.30;99.90;;;;;;4144036;28;20030;-64
2022/04/05 00:37:43;;;;;;;5.40;4.82;;;9.30;99.90;;;;;;4143801;28;20034;-63
2022/04/05 00:39:44;;;;;;;5.30;4.72;;;9.30;99.90;;;;;;4143643;28;20030;-63
2022/04/05 00:41:44;;;;;;;5.68;4.78;;;9.40;99.90;;;;;;4143692;28;20045;-63
2022/04/05 00:43:45;;;;;;;6.35;5.20;;;9.40;99.90;;;;;;4144504;28;20065;-63
2022/04/05 00:45:46;;;;;;;6.05;5.40;;;9.40;99.90;;;;;;4143536;28;20037;-63
2022/04/05 00:47:50;;;;;;;5.88;5.28;;;9.50;99.90;;;;;;4144231;28;20026;-64
2022/04/05 00:49:55;;;;;;;6.05;5.43;;;9.50;99.90;;;;;;4143245;28;20034;-63
2022/04/05 00:52:00;;;;;;;5.43;4.88;;;9.50;99.90;;;;;;4143588;28;20095;-63
2022/04/05 00:54:04;;;;;;;5.32;4.82;;;9.50;99.90;;;;;;4141633;28;20030;-63
2022/04/05 00:56:07;;;;;;;7.00;5.38;;;9.50;99.90;;;;;;4143998;28;20474;-63
2022/04/05 00:58:09;;;;;;;5.45;4.95;;;9.60;99.90;;;;;;4143857;28;20026;-63
2022/04/05 01:00:10;;;;;;;7.55;5.75;;;9.60;99.90;;;;;;4143591;28;20092;-64
2022/04/05 01:02:17;;;;;;;5.55;4.97;;;9.60;99.90;;;;;;4143203;28;20034;-62
2022/04/05 01:04:20;;;;;;;6.30;5.20;;;9.60;99.90;;;;;;4143389;28;20113;-62
2022/04/05 01:06:31;;;;;;;7.00;5.82;;;9.60;99.90;;;;;;4140836;28;20041;-63
2022/04/05 01:08:32;;;;;;;5.70;5.13;;;9.70;99.90;;;;;;4143520;28;20044;-63
2022/04/05 01:10:34;;;;;;;6.28;5.57;;;9.70;99.90;;;;;;4143013;28;20046;-63
2022/04/05 01:12:35;;;;;;;7.47;6.43;;;9.70;99.90;;;;;;4126735;28;20123;-63
2022/04/05 01:14:37;;;;;;;6.90;5.88;;;9.70;99.90;;;;;;4144288;28;20030;-63
2022/04/05 01:16:41;;;;;;;8.30;7.30;;;9.70;99.90;;;;;;4143118;28;20029;-63
2022/04/05 01:18:42;;;;;;;7.50;6.20;;;9.80;99.90;;;;;;4142965;28;20261;-63
2022/04/05 01:20:43;;;;;;;11.85;7.07;;;9.80;99.90;;;;;;4143637;28;20042;-63
2022/04/05 01:22:49;;;;;;;11.77;7.67;;;9.80;99.90;;;;;;4144157;28;20049;-64
2022/04/05 01:24:51;;;;;;;9.75;7.57;;;9.80;99.90;;;;;;4142988;28;20417;-63
2022/04/05 01:26:54;;;;;;;9.52;8.52;;;9.80;99.90;;;;;;4143698;28;20045;-63
2022/04/05 01:28:55;;;;;;;12.85;9.75;;;9.80;99.90;;;;;;4144264;28;20042;-63
2022/04/05 01:30:56;;;;;;;11.73;9.10;;;9.80;99.90;;;;;;4143825;28;20136;-63
2022/04/05 01:32:59;;;;;;;10.13;8.88;;;9.90;99.90;;;;;;4147278;28;20547;-63
2022/04/05 01:35:00;;;;;;;12.93;9.55;;;9.90;99.90;;;;;;4147524;28;20038;-63
2022/04/05 01:37:03;;;;;;;11.20;8.93;;;9.90;99.90;;;;;;4146727;28;20092;-63
2022/04/05 01:39:06;;;;;;;11.35;9.20;;;9.90;99.90;;;;;;4147592;28;20108;-63
2022/04/05 01:41:06;;;;;;;13.55;9.48;;;9.90;99.90;;;;;;4146602;28;20389;-64
2022/04/05 01:43:07;;;;;;;12.93;9.60;;;9.90;99.90;;;;;;4147433;28;20021;-63
2022/04/05 01:45:08;;;;;;;13.02;9.82;;;10.00;99.90;;;;;;4146939;28;20033;-64
2022/04/05 01:47:11;;;;;;;13.35;8.35;;;10.00;99.90;;;;;;4147342;28;20559;-63
2022/04/05 01:49:15;;;;;;;12.95;9.43;;;10.00;99.90;;;;;;4147283;28;20465;-63
2022/04/05 01:51:16;;;;;;;12.73;8.90;;;10.00;99.90;;;;;;4146435;28;20033;-63
2022/04/05 01:53:16;;;;;;;12.43;9.95;;;10.00;99.90;;;;;;4147250;28;20076;-63
2022/04/05 01:55:17;;;;;;;11.13;8.52;;;10.00;99.90;;;;;;4146785;28;20029;-63
2022/04/05 01:57:17;;;;;;;16.45;9.68;;;10.00;99.90;;;;;;4147118;28;20038;-64
2022/04/05 01:59:24;;;;;;;11.13;8.68;;;10.00;99.90;;;;;;4147021;28;20030;-63
2022/04/05 02:01:25;;;;;;;10.30;8.27;;;10.00;99.90;;;;;;4146729;28;20057;-63
2022/04/05 02:03:25;;;;;;;11.82;9.57;;;10.00;99.90;;;;;;4147038;28;20030;-64
2022/04/05 02:05:26;;;;;;;13.45;8.65;;;10.00;99.90;;;;;;4146504;28;20385;-63
2022/04/05 02:07:29;;;;;;;12.63;8.18;;;10.00;99.90;;;;;;4145011;28;20034;-63
2022/04/05 02:09:29;;;;;;;11.45;7.72;;;10.00;99.90;;;;;;4147160;28;20631;-63
2022/04/05 02:11:30;;;;;;;12.38;8.10;;;10.10;99.90;;;;;;4144315;28;20042;-63
2022/04/05 02:13:31;;;;;;;11.23;7.43;;;10.10;99.90;;;;;;4146821;28;20037;-63
2022/04/05 02:15:31;;;;;;;10.00;7.60;;;10.00;99.90;;;;;;4146321;28;20045;-64
2022/04/05 02:17:32;;;;;;;12.63;7.78;;;10.10;99.90;;;;;;4147057;28;20100;-63
2022/04/05 02:19:34;;;;;;;9.07;7.38;;;10.00;99.90;;;;;;4146837;28;20033;-63
2022/04/05 02:21:35;;;;;;;11.30;7.00;;;10.10;99.90;;;;;;4146321;28;20366;-63
2022/04/05 02:23:35;;;;;;;7.30;6.22;;;10.10;99.90;;;;;;4146815;28;20041;-63
2022/04/05 02:25:36;;;;;;;10.77;7.00;;;10.10;99.90;;;;;;4146111;28;20108;-63
2022/04/05 02:27:41;;;;;;;10.45;6.78;;;10.10;99.90;;;;;;4146810;28;20034;-63
2022/04/05 02:29:41;;;;;;;11.40;6.95;;;10.10;99.90;;;;;;4146339;28;20034;-63
2022/04/05 02:31:42;;;;;;;10.93;7.25;;;10.10;99.90;;;;;;4146270;28;20124;-63
2022/04/05 02:33:43;;;;;;;9.55;6.53;;;10.20;99.90;;;;;;4146562;28;20030;-63
2022/04/05 02:35:43;;;;;;;8.02;6.35;;;10.10;99.90;;;;;;4145858;28;20026;-65
2022/04/05 02:37:44;;;;;;;10.00;7.22;;;10.10;99.90;;;;;;4146731;28;20053;-64
2022/04/05 02:39:45;;;;;;;10.50;6.85;;;10.20;99.90;;;;;;4146444;28;20375;-64
2022/04/05 02:41:45;;;;;;;10.60;7.82;;;10.10;99.90;;;;;;4146059;28;20041;-63
2022/04/05 02:43:46;;;;;;;8.90;6.80;;;10.10;99.90;;;;;;4145883;28;20101;-63
2022/04/05 02:45:47;;;;;;;9.98;7.65;;;10.10;99.90;;;;;;4145859;28;20030;-64
2022/04/05 02:47:48;;;;;;;10.27;7.07;;;10.10;99.90;;;;;;4146571;28;20037;-63
2022/04/05 02:49:49;;;;;;;9.05;6.45;;;10.10;99.90;;;;;;4146346;28;20046;-63
2022/04/05 02:51:50;;;;;;;10.00;7.28;;;10.10;99.90;;;;;;4145927;28;20096;-63
2022/04/05 02:53:51;;;;;;;16.10;8.68;;;10.10;99.90;;;;;;4146433;28;20048;-63
2022/04/05 02:55:51;;;;;;;10.88;7.40;;;10.10;99.90;;;;;;4145749;28;20030;-63
2022/04/05 02:57:52;;;;;;;10.63;7.22;;;10.10;99.90;;;;;;4146354;28;20050;-63
2022/04/05 02:59:52;;;;;;;10.50;6.68;;;10.10;99.90;;;;;;4146441;28;20046;-63
2022/04/05 03:01:53;;;;;;;8.98;7.25;;;10.10;99.90;;;;;;4145857;28;20429;-64
2022/04/05 03:03:53;;;;;;;10.02;7.63;;;10.20;99.90;;;;;;4146019;28;20034;-63
2022/04/05 03:05:54;;;;;;;9.00;7.13;;;10.20;99.90;;;;;;4145666;28;20021;-63
2022/04/05 03:07:55;;;;;;;10.70;7.13;;;10.10;99.90;;;;;;4146123;28;20041;-63
2022/04/05 03:09:55;;;;;;;9.32;7.45;;;10.20;99.90;;;;;;4146155;28;20030;-63
2022/04/05 03:11:56;;;;;;;12.05;6.53;;;10.20;99.90;;;;;;4145399;28;20033;-63
2022/04/05 03:13:57;;;;;;;8.88;6.20;;;10.20;99.90;;;;;;4146407;28;24492;-63
2022/04/05 03:15:57;;;;;;;9.77;6.78;;;10.20;99.90;;;;;;4145136;28;20449;-63
2022/04/05 03:17:58;;;;;;;9.55;7.40;;;10.20;99.90;;;;;;4145511;28;20056;-63
2022/04/05 03:20:00;;;;;;;9.32;7.82;;;10.20;99.90;;;;;;4145070;28;20040;-63
2022/04/05 03:22:00;;;;;;;10.05;7.78;;;10.10;99.90;;;;;;4145613;28;20041;-63
2022/04/05 03:24:01;;;;;;;10.77;7.88;;;10.10;99.90;;;;;;4145967;28;20026;-63
2022/04/05 03:26:01;;;;;;;10.02;7.43;;;10.10;99.90;;;;;;4145091;28;20045;-63
2022/04/05 03:28:03;;;;;;;9.73;7.90;;;10.10;99.90;;;;;;4145835;28;20058;-64
2022/04/05 03:30:04;;;;;;;9.75;7.80;;;10.10;99.90;;;;;;4145786;28;20120;-65
2022/04/05 03:32:05;;;;;;;10.52;7.60;;;10.10;99.90;;;;;;4145610;28;20046;-63
2022/04/05 03:34:06;;;;;;;7.97;6.75;;;10.10;99.90;;;;;;4145690;28;20041;-63
2022/04/05 03:36:07;;;;;;;10.50;7.05;;;10.10;99.90;;;;;;4145245;28;20501;-63
2022/04/05 03:38:07;;;;;;;9.15;5.43;;;10.10;99.90;;;;;;4145668;28;20389;-63
2022/04/05 03:40:10;;;;;;;5.50;4.82;;;10.10;99.90;;;;;;4145116;28;20040;-66
2022/04/05 03:42:10;;;;;;;6.43;5.10;;;10.10;99.90;;;;;;4145476;28;20034;-64
2022/04/05 03:44:11;;;;;;;4.38;3.97;;;10.20;99.90;;;;;;4145716;28;20528;-63
2022/04/05 03:46:12;;;;;;;4.88;3.28;;;10.20;99.90;;;;;;4145020;28;20076;-64
2022/04/05 03:48:12;;;;;;;6.40;3.88;;;10.20;99.90;;;;;;4145865;28;20148;-64
2022/04/05 03:50:14;;;;;;;5.65;4.30;;;10.20;99.90;;;;;;4144638;28;20045;-64
2022/04/05 03:52:15;;;;;;;3.73;3.13;;;10.20;99.90;;;;;;4145209;28;20034;-65
2022/04/05 03:54:15;;;;;;;5.68;3.72;;;10.10;99.90;;;;;;4145364;28;20033;-64
2022/04/05 03:56:16;;;;;;;4.47;3.78;;;10.10;99.90;;;;;;4143912;28;20109;-65
2022/04/05 03:58:17;;;;;;;3.72;3.30;;;10.10;99.90;;;;;;4145096;28;20030;-64
2022/04/05 04:00:18;;;;;;;4.40;3.03;;;10.10;99.90;;;;;;4144873;28;20042;-64
2022/04/05 04:02:18;;;;;;;3.30;2.67;;;10.10;99.90;;;;;;4144420;28;20033;-63
2022/04/05 04:04:19;;;;;;;3.15;2.67;;;10.10;99.90;;;;;;4145400;28;20030;-64
2022/04/05 04:06:19;;;;;;;2.95;2.65;;;10.00;99.90;;;;;;4144393;28;20069;-64
2022/04/05 04:08:20;;;;;;;3.13;2.70;;;10.00;99.90;;;;;;4145432;28;20099;-64
2022/04/05 04:10:21;;;;;;;2.03;1.80;;;10.00;99.90;;;;;;4144658;28;20501;-63
2022/04/05 04:12:21;;;;;;;2.97;2.47;;;10.10;99.90;;;;;;4144731;28;20448;-63
2022/04/05 04:14:22;;;;;;;2.67;2.00;;;10.10;99.90;;;;;;4145280;28;20026;-64
2022/04/05 04:16:23;;;;;;;4.25;2.22;;;10.10;99.90;;;;;;4144661;28;20041;-63
2022/04/05 04:18:23;;;;;;;2.53;1.85;;;10.10;99.90;;;;;;4149117;28;20026;-63
2022/04/05 04:20:24;;;;;;;2.13;1.83;;;10.10;99.90;;;;;;4148077;28;20038;-63
2022/04/05 04:22:26;;;;;;;2.47;1.92;;;10.10;99.90;;;;;;4142644;28;20122;-63
2022/04/05 04:24:27;;;;;;;1.75;1.65;;;10.10;99.90;;;;;;4147528;28;20046;-64
2022/04/05 04:26:28;;;;;;;3.17;1.88;;;10.10;99.90;;;;;;4140414;28;21034;-63
2022/04/05 04:28:28;;;;;;;2.65;2.05;;;10.10;99.90;;;;;;4142374;28;20124;-63
2022/04/05 04:30:29;;;;;;;1.67;1.58;;;10.10;99.90;;;;;;4140051;28;20128;-64
2022/04/05 04:32:30;;;;;;;2.50;1.83;;;10.10;99.90;;;;;;4140438;28;20519;-63
2022/04/05 04:34:31;;;;;;;4.10;1.95;;;10.10;99.90;;;;;;4140778;28;20126;-63
2022/04/05 04:36:31;;;;;;;1.90;1.80;;;10.10;99.90;;;;;;4139019;28;20038;-63
2022/04/05 04:38:32;;;;;;;1.67;1.58;;;10.20;99.90;;;;;;4140283;28;20417;-63
2022/04/05 04:40:33;;;;;;;2.92;1.95;;;10.20;99.90;;;;;;4139803;28;20041;-63
2022/04/05 04:42:34;;;;;;;2.00;1.80;;;10.10;99.90;;;;;;4140577;28;20489;-63
2022/04/05 04:44:35;;;;;;;1.67;1.58;;;10.20;99.90;;;;;;4141017;28;20034;-63
2022/04/05 04:46:35;;;;;;;2.17;1.90;;;10.20;99.90;;;;;;4140304;28;20041;-63
2022/04/05 04:48:36;;;;;;;2.30;2.10;;;10.20;99.90;;;;;;4139541;28;20392;-64
2022/04/05 04:50:36;;;;;;;3.08;2.13;;;10.20;99.90;;;;;;4140374;28;20051;-64
2022/04/05 04:52:38;;;;;;;2.97;2.60;;;10.20;99.90;;;;;;4138503;28;20614;-63
2022/04/05 04:54:38;;;;;;;3.53;2.83;;;10.20;99.90;;;;;;4138192;28;20029;-63
2022/04/05 04:56:39;;;;;;;3.90;3.50;;;10.20;99.90;;;;;;4137917;28;20026;-65
2022/04/05 04:58:40;;;;;;;4.78;3.65;;;10.20;99.90;;;;;;4138384;28;20061;-64
2022/04/05 05:00:40;;;;;;;5.85;4.82;;;10.20;99.90;;;;;;4139809;28;20465;-64
2022/04/05 05:02:48;;;;;;;6.70;5.13;;;10.10;99.90;;;;;;4140154;28;20022;-64
2022/04/05 05:04:49;;;;;;;7.28;6.00;;;10.10;99.90;;;;;;4139535;28;20035;-63
2022/04/05 05:06:51;;;;;;;7.40;5.97;;;10.10;99.90;;;;;;4144268;28;20120;-64
2022/04/05 05:08:51;;;;;;;8.07;6.60;;;10.10;99.90;;;;;;4144275;28;20690;-63
2022/04/05 05:10:53;;;;;;;10.07;6.82;;;10.10;99.90;;;;;;4141886;28;20041;-63
2022/04/05 05:12:53;;;;;;;9.95;7.13;;;10.10;99.90;;;;;;4142988;28;20042;-64
2022/04/05 05:14:54;;;;;;;7.68;6.57;;;10.20;99.90;;;;;;4143599;28;20516;-63
2022/04/05 05:16:55;;;;;;;9.32;6.18;;;10.10;99.90;;;;;;4142567;28;20554;-64
2022/04/05 05:18:55;;;;;;;7.70;6.32;;;10.10;99.90;;;;;;4144149;28;20481;-63
2022/04/05 05:20:56;;;;;;;10.13;6.30;;;10.20;99.90;;;;;;4145451;28;20076;-63
2022/04/05 05:22:57;;;;;;;8.93;6.90;;;10.20;99.90;;;;;;4143745;28;20030;-64
2022/04/05 05:24:58;;;;;;;7.55;6.20;;;10.20;99.90;;;;;;4143891;28;20038;-63
2022/04/05 05:26:59;;;;;;;9.43;6.50;;;10.20;99.90;;;;;;4143636;28;20046;-63
2022/04/05 05:28:59;;;;;;;9.57;6.63;;;10.20;99.90;;;;;;4146084;28;20145;-64
2022/04/05 05:31:00;;;;;;;9.85;6.18;;;10.20;99.90;;;;;;4145415;28;20042;-63
2022/04/05 05:33:01;;;;;;;10.55;5.75;;;10.20;99.90;;;;;;4144738;28;20037;-64
2022/04/05 05:35:01;;;;;;;7.10;5.82;;;10.20;99.90;;;;;;4144403;28;20401;-63
2022/04/05 05:37:03;;;;;;;8.45;5.95;;;10.30;99.90;;;;;;4145453;28;20118;-64
2022/04/05 05:39:03;;;;;;;7.63;5.38;;;10.30;99.90;;;;;;4143423;28;20045;-64
2022/04/05 05:41:04;;;;;;;8.10;5.93;;;10.30;99.90;;;;;;4145110;28;20484;-63
2022/04/05 05:43:05;;;;;;;7.57;6.30;;;10.30;99.90;;;;;;4145294;28;20105;-63
2022/04/05 05:45:06;;;;;;;8.00;5.72;;;10.30;99.90;;;;;;4147443;28;20084;-66
2022/04/05 05:47:08;;;;;;;8.38;5.63;;;10.30;99.90;;;;;;4146267;28;20065;-63
2022/04/05 05:49:09;;;;;;;10.02;6.38;;;10.30;99.90;;;;;;4144103;28;20049;-63
2022/04/05 05:51:10;;;;;;;8.32;6.30;;;10.30;99.90;;;;;;4143593;28;20041;-64
2022/04/05 05:53:10;;;;;;;9.00;5.65;;;10.30;99.90;;;;;;4142313;28;20030;-64
2022/04/05 05:55:13;;;;;;;9.18;6.03;;;10.30;99.90;;;;;;4141210;28;20053;-65
2022/04/05 05:57:13;;;;;;;7.20;5.43;;;10.30;99.90;;;;;;4144767;28;20038;-64
2022/04/05 05:59:14;;;;;;;6.55;5.68;;;10.40;99.90;;;;;;4141396;28;20393;-64
2022/04/05 06:01:16;;;;;;;8.43;6.13;;;10.40;99.90;;;;;;4142912;28;20038;-64
2022/04/05 06:03:17;;;;;;;8.23;6.28;;;10.40;99.90;;;;;;4126300;28;20042;-64
2022/04/05 06:05:18;;;;;;;9.00;6.68;;;10.40;99.90;;;;;;4143455;28;20045;-65
2022/04/05 06:07:18;;;;;;;8.90;6.35;;;10.40;99.90;;;;;;4144539;28;20070;-64
2022/04/05 06:09:19;;;;;;;8.65;5.97;;;10.40;99.90;;;;;;4143043;28;20065;-65
2022/04/05 06:11:19;;;;;;;9.05;6.18;;;10.40;99.90;;;;;;4142474;28;20489;-64
2022/04/05 06:13:21;;;;;;;11.77;6.70;;;10.40;99.90;;;;;;4144114;28;20046;-64
2022/04/05 06:15:23;;;;;;;8.07;5.72;;;10.40;99.90;;;;;;4147384;28;21122;-64
2022/04/05 06:17:24;;;;;;;;;;;10.40;99.90;;;;;;4126336;28;20034;-64
2022/04/05 06:19:25;;;;;;;9.65;6.20;;;10.40;99.90;;;;;;4141568;28;19918;-64
2022/04/05 06:21:25;;;;;;;9.20;5.95;;;10.40;99.90;;;;;;4140861;28;20116;-64
2022/04/05 06:23:26;;;;;;;8.15;6.45;;;10.50;99.90;;;;;;4144170;28;20045;-63
2022/04/05 06:25:32;;;;;;;7.35;5.60;;;10.40;99.90;;;;;;4141489;28;20426;-64
2022/04/05 06:27:32;;;;;;;8.63;5.90;;;10.40;99.90;;;;;;4141792;28;20056;-63
2022/04/05 06:29:33;;;;;;;10.25;6.43;;;10.50;99.90;;;;;;4142642;28;20355;-64
2022/04/05 06:31:34;;;;;;;7.95;5.88;;;10.50;99.90;;;;;;4145992;28;20048;-63
2022/04/05 06:33:35;;;;;;;9.20;6.13;;;10.50;99.90;;;;;;4143388;28;20044;-63
2022/04/05 06:35:38;;;;;;;8.02;6.15;;;10.50;99.90;;;;;;4142973;28;20036;-63
2022/04/05 06:37:43;;;;;;;9.13;5.60;;;10.50;99.90;;;;;;4143742;28;20125;-63
2022/04/05 06:39:43;;;;;;;9.52;6.80;;;10.50;99.90;;;;;;4143087;28;20034;-64
2022/04/05 06:41:44;;;;;;;8.85;6.43;;;10.50;99.90;;;;;;4142283;28;20087;-63
2022/04/05 06:43:45;;;;;;;9.32;5.93;;;10.50;99.90;;;;;;4140612;28;20041;-64
2022/04/05 06:45:46;;;;;;;8.50;6.57;;;10.50;99.90;;;;;;4123230;28;20041;-63
2022/04/05 06:47:47;;;;;;;7.32;5.53;;;10.50;99.90;;;;;;4141082;28;20456;-64
2022/04/05 06:49:48;;;;;;;8.45;5.78;;;10.50;99.90;;;;;;4141953;28;20057;-67
2022/04/05 06:51:48;;;;;;;7.25;5.90;;;10.50;99.90;;;;;;4141660;28;20053;-65
2022/04/05 06:53:49;;;;;;;8.65;6.05;;;10.50;99.90;;;;;;4141163;28;20571;-64
2022/04/05 06:55:49;;;;;;;9.43;5.97;;;10.50;99.90;;;;;;4141342;28;20046;-64
2022/04/05 06:57:52;;;;;;;6.68;5.47;;;10.50;99.90;;;;;;4141577;28;20042;-64
2022/04/05 06:59:52;;;;;;;8.93;6.20;;;10.50;99.90;;;;;;4140733;28;20049;-63
2022/04/05 07:01:53;;;;;;;6.63;5.72;;;10.50;99.90;;;;;;4141072;28;20063;-64
2022/04/05 07:03:53;;;;;;;8.43;5.55;;;10.40;99.90;;;;;;4140209;28;20050;-63
2022/04/05 07:05:54;;;;;;;5.93;5.28;;;10.50;99.90;;;;;;4134699;28;20509;-64
2022/04/05 07:07:55;;;;;;;6.50;5.07;;;10.50;99.90;;;;;;4140589;28;20115;-64
2022/04/05 07:09:56;;;;;;;7.05;5.70;;;10.50;99.90;;;;;;4140761;28;20026;-64
2022/04/05 07:11:56;;;;;;;6.75;5.40;;;10.50;99.90;;;;;;4138273;28;20504;-63
2022/04/05 07:13:57;;;;;;;6.70;5.07;;;10.50;99.90;;;;;;4136695;28;20165;-63
2022/04/05 07:15:58;;;;;;;6.72;4.88;;;10.50;99.90;;;;;;4140874;28;20042;-63
2022/04/05 07:17:58;;;;;;;6.47;4.80;;;10.50;99.90;;;;;;4140927;28;20141;-63
2022/04/05 07:19:59;;;;;;;6.20;5.13;;;10.50;99.90;;;;;;4141800;28;20045;-63
2022/04/05 07:22:00;;;;;;;6.03;5.10;;;10.50;99.90;;;;;;4141051;28;20048;-64
2022/04/05 07:24:01;;;;;;;7.45;4.93;;;10.50;99.90;;;;;;4141160;28;20045;-64
2022/04/05 07:26:02;;;;;;;4.68;4.15;;;10.50;99.90;;;;;;4140692;28;20054;-64
2022/04/05 07:28:03;;;;;;;7.22;5.40;;;10.50;99.90;;;;;;4143039;28;20065;-64
2022/04/05 07:30:04;;;;;;;6.55;5.00;;;10.50;99.90;;;;;;4142743;28;20485;-65
2022/04/05 07:32:05;;;;;;;7.47;5.13;;;10.50;99.90;;;;;;4140161;28;20096;-63
2022/04/05 07:34:06;;;;;;;7.10;5.47;;;10.50;99.90;;;;;;4140960;28;20030;-64
2022/04/05 07:36:06;;;;;;;6.90;5.72;;;10.50;99.90;;;;;;4141325;28;20045;-63
2022/04/05 07:38:07;;;;;;;6.13;5.45;;;10.60;99.90;;;;;;4141151;28;20042;-64
2022/04/05 07:40:10;;;;;;;8.05;5.70;;;10.50;99.90;;;;;;4123635;28;20117;-65
2022/04/05 07:42:11;;;;;;;7.18;5.63;;;10.60;99.90;;;;;;4140800;28;20393;-66
2022/04/05 07:44:11;;;;;;;8.50;6.10;;;10.50;99.90;;;;;;4141019;28;20116;-64
2022/04/05 07:46:12;;;;;;;10.95;5.95;;;10.60;99.90;;;;;;4140203;28;20042;-64
2022/04/05 07:48:13;;;;;;;7.68;6.22;;;10.60;99.90;;;;;;4140523;28;20042;-64
2022/04/05 07:50:13;;;;;;;10.13;7.47;;;10.60;99.90;;;;;;4140203;28;20448;-64
2022/04/05 07:52:14;;;;;;;7.90;6.50;;;10.60;99.90;;;;;;4141328;28;20509;-64
2022/04/05 07:54:15;;;;;;;7.63;6.18;;;10.60;99.90;;;;;;4140699;28;20482;-64
2022/04/05 07:56:15;;;;;;;10.02;7.20;;;10.70;99.90;;;;;;4139848;28;20026;-64
2022/04/05 07:58:16;;;;;;;9.98;7.00;;;10.70;99.90;;;;;;4139915;28;20117;-64
2022/04/05 08:00:17;;;;;;;9.40;7.55;;;10.60;99.90;;;;;;4139666;28;20165;-64
2022/04/05 08:02:18;;;;;;;11.10;7.28;;;10.60;99.90;;;;;;4139924;28;20026;-63
2022/04/05 08:04:19;;;;;;;10.10;6.50;;;10.70;99.90;;;;;;4139924;28;20033;-65
2022/04/05 08:06:20;;;;;;;8.73;7.70;;;10.70;99.90;;;;;;4140437;28;20398;-64
2022/04/05 08:08:20;;;;;;;9.00;7.32;;;10.70;99.90;;;;;;4141946;28;20165;-64
2022/04/05 08:10:22;;;;;;;14.05;7.88;;;10.70;99.90;;;;;;4140369;28;20041;-64
2022/04/05 08:12:22;;;;;;;11.80;8.15;;;10.70;99.90;;;;;;4140596;28;20049;-63
2022/04/05 08:14:27;;;;;;;10.05;8.18;;;10.80;99.90;;;;;;4140354;28;20064;-64
2022/04/05 08:16:28;;;;;;;11.80;8.63;;;10.80;99.90;;;;;;4138813;28;20474;-63
2022/04/05 08:18:29;;;;;;;11.05;7.57;;;10.80;99.90;;;;;;4139617;28;20367;-64
2022/04/05 08:20:30;;;;;;;11.25;8.02;;;10.80;99.90;;;;;;4137604;28;20050;-63
2022/04/05 08:22:30;;;;;;;12.65;8.18;;;10.80;99.90;;;;;;4141142;28;20056;-63
2022/04/05 08:24:31;;;;;;;12.93;8.07;;;10.90;99.90;;;;;;4140544;28;20042;-63
2022/04/05 08:26:31;;;;;;;13.40;7.93;;;10.90;99.90;;;;;;4139114;28;20104;-64
2022/04/05 08:28:32;;;;;;;9.95;7.32;;;10.90;99.90;;;;;;4139523;28;20041;-64
2022/04/05 08:30:33;;;;;;;12.43;8.27;;;10.90;99.90;;;;;;4140369;28;20034;-63
2022/04/05 08:32:36;;;;;;;12.10;7.97;;;10.90;99.90;;;;;;4122211;28;20042;-63
2022/04/05 08:34:41;;;;;;;13.43;8.52;;;10.90;99.90;;;;;;4139531;28;20044;-63
2022/04/05 08:36:41;;;;;;;12.27;8.30;;;10.90;99.90;;;;;;4139431;28;20057;-64
2022/04/05 08:38:42;;;;;;;9.82;7.03;;;11.00;99.90;;;;;;4139838;28;20030;-66
2022/04/05 08:40:43;;;;;;;15.55;8.75;;;11.00;99.90;;;;;;4142582;28;20038;-64
2022/04/05 08:42:47;;;;;;;13.98;9.05;;;11.00;99.90;;;;;;4137830;28;20443;-64
2022/04/05 08:44:49;;;;;;;10.77;8.10;;;11.00;99.90;;;;;;4143085;28;20029;-64
2022/04/05 08:46:51;;;;;;;11.47;7.90;;;11.00;99.90;;;;;;4138475;28;20038;-64
2022/04/05 08:48:53;;;;;;;11.48;8.35;;;11.00;99.90;;;;;;4139258;28;20037;-65
2022/04/05 08:50:58;;;;;;;13.23;8.73;;;11.10;99.90;;;;;;4139674;28;20591;-64
2022/04/05 08:53:00;;;;;;;13.07;8.80;;;11.10;99.90;;;;;;4139889;28;20401;-64
2022/04/05 08:55:01;;;;;;;12.93;8.70;;;11.10;99.90;;;;;;4139935;28;20120;-64
2022/04/05 08:57:02;;;;;;;11.10;8.00;;;11.10;99.90;;;;;;4138514;28;20041;-63
2022/04/05 08:59:03;;;;;;;11.30;8.30;;;11.10;99.90;;;;;;4140422;28;20541;-64
2022/04/05 09:01:03;;;;;;;9.85;7.32;;;11.20;99.90;;;;;;4141213;28;20121;-64
2022/04/05 09:03:05;;;;;;;12.10;8.30;;;11.20;99.90;;;;;;4139965;28;20038;-64
2022/04/05 09:05:06;;;;;;;10.35;7.00;;;11.20;99.90;;;;;;4139401;28;20038;-65
2022/04/05 09:07:22;;;;;;;14.38;7.93;;;11.10;99.90;;;;;;4139285;28;20088;-64
2022/04/05 09:09:28;;;;;;;10.40;6.65;;;11.10;99.90;;;;;;4138793;28;20069;-64
2022/04/05 09:11:29;;;;;;;11.70;7.47;;;11.10;99.90;;;;;;4138018;28;20048;-64
2022/04/05 09:13:30;;;;;;;11.43;7.00;;;11.10;99.90;;;;;;4140044;28;20125;-64
2022/04/05 09:15:34;;;;;;;10.52;6.82;;;11.10;99.90;;;;;;4139552;28;20083;-64
2022/04/05 09:17:42;;;;;;;9.40;7.00;;;11.10;99.90;;;;;;4139534;28;20037;-64
2022/04/05 09:19:48;;;;;;;11.07;6.82;;;11.10;99.90;;;;;;4138703;28;20056;-64
2022/04/05 09:21:51;;;;;;;11.95;7.45;;;11.10;99.90;;;;;;4139022;28;20073;-64
2022/04/05 09:24:04;;;;;;;;;;;11.10;99.90;;;;;;4140036;28;20038;-64
2022/04/05 09:26:13;;;;;;;8.50;5.97;;;11.10;99.90;;;;;;4138795;28;19991;-64
2022/04/05 09:28:28;;;;;;;16.60;8.00;;;11.10;99.90;;;;;;4140522;28;20053;-64
2022/04/05 09:30:33;;;;;;;12.90;7.65;;;11.20;99.90;;;;;;4138943;28;20057;-64
2022/04/05 09:32:40;;;;;;;9.50;6.50;;;11.20;99.90;;;;;;4139487;28;20041;-64
2022/04/05 09:34:50;;;;;;;10.48;6.70;;;11.20;99.90;;;;;;4139701;28;20121;-64
2022/04/05 09:36:51;;;;;;;13.07;6.85;;;11.20;99.90;;;;;;4138567;28;20683;-64
2022/04/05 09:38:52;;;;;;;13.90;7.20;;;11.20;99.90;;;;;;4140287;28;20033;-64
2022/04/05 09:40:52;;;;;;;8.80;5.90;;;11.30;99.90;;;;;;4139217;28;20041;-64
2022/04/05 09:43:12;;;;;;;9.95;6.70;;;11.30;99.90;;;;;;4139415;28;20121;-64
2022/04/05 09:45:12;;;;;;;9.73;6.00;;;11.30;99.90;;;;;;4139410;28;20393;-64
2022/04/05 09:47:18;;;;;;;11.02;5.97;;;11.30;99.90;;;;;;4138897;28;20034;-65
2022/04/05 09:49:34;;;;;;;12.15;6.15;;;11.30;99.90;;;;;;4141241;28;20077;-64
2022/04/05 09:51:40;;;;;;;13.30;6.40;;;11.40;99.90;;;;;;4139290;28;20052;-64
2022/04/05 09:53:51;;;;;;;11.60;6.28;;;11.40;99.90;;;;;;4141456;28;20046;-64
2022/04/05 09:56:03;;;;;;;8.98;6.07;;;11.50;99.90;;;;;;4141731;28;20037;-64
2022/04/05 09:58:13;;;;;;;9.27;6.22;;;11.50;99.90;;;;;;4142266;28;20096;-64
2022/04/05 10:00:16;;;;;;;11.45;6.68;;;11.60;99.90;;;;;;4141686;28;20038;-64
2022/04/05 10:02:17;;;;;;;;;;;11.60;99.90;;;;;;4144418;28;20030;-64
2022/04/05 10:04:18;;;;;;;12.38;5.85;;;11.70;99.90;;;;;;4144098;28;19960;-63
2022/04/05 10:06:20;;;;;;;11.93;6.00;;;11.70;99.90;;;;;;4147623;28;20038;-64
2022/04/05 10:08:21;;;;;;;9.75;5.45;;;11.70;99.90;;;;;;4143309;28;20036;-65
2022/04/05 10:10:23;;;;;;;7.13;5.18;;;11.80;99.90;;;;;;4140353;28;20037;-64
2022/04/05 10:12:24;;;;;;;6.60;4.80;;;11.80;99.90;;;;;;4142462;28;20034;-64
2022/04/05 10:14:26;;;;;;;8.05;4.47;;;11.80;99.90;;;;;;4141005;28;20284;-64
2022/04/05 10:16:28;;;;;;;7.50;4.55;;;11.70;99.90;;;;;;4140582;28;20573;-64
2022/04/05 10:18:33;;;;;;;;;;;11.70;99.90;;;;;;4142207;28;20038;-63
2022/04/05 10:20:34;;;;;;;7.45;4.28;;;11.70;99.90;;;;;;4140247;28;20000;-63
2022/04/05 10:22:36;;;;;;;5.07;3.95;;;11.70;99.90;;;;;;4140787;28;20034;-63
2022/04/05 10:24:39;;;;;;;4.37;3.80;;;11.70;99.90;;;;;;4140522;28;20045;-63
2022/04/05 10:26:41;;;;;;;5.07;4.10;;;11.70;99.90;;;;;;4140919;28;20302;-63
2022/04/05 10:28:45;;;;;;;4.97;4.07;;;11.70;99.90;;;;;;4141378;28;20034;-63
2022/04/05 10:30:56;;;;;;;5.68;4.38;;;11.60;99.90;;;;;;4142064;28;20096;-64
2022/04/05 10:33:23;;;;;;;7.03;4.13;;;11.60;99.90;;;;;;4140957;28;20041;-63